createdAt,value
2022-12-03T00:00:12.813Z,16.67
2022-12-03T00:02:41.549Z,15.20
2022-12-03T00:05:10.519Z,16.97
2022-12-03T00:07:38.383Z,17.17
2022-12-03T00:10:07.820Z,16.97
2022-12-03T00:12:36.831Z,16.07
2022-12-03T00:15:05.274Z,19.27
2022-12-03T00:17:32.965Z,18.27
2022-12-03T00:20:00.735Z,17.33
2022-12-03T00:22:28.451Z,19.60
2022-12-03T00:24:56.464Z,17.50
2022-12-03T00:27:24.300Z,18.30
2022-12-03T00:29:53.318Z,16.80
2022-12-03T00:32:20.978Z,18.23
2022-12-03T00:34:48.621Z,18.80
2022-12-03T00:37:16.331Z,18.77
2022-12-03T00:39:44.016Z,17.70
2022-12-03T00:42:11.706Z,20.87
2022-12-03T00:44:39.380Z,18.50
2022-12-03T00:47:09.476Z,16.50
2022-12-03T00:49:37.325Z,17.17
2022-12-03T00:52:05.085Z,18.50
2022-12-03T00:54:32.718Z,20.40
2022-12-03T00:57:00.356Z,20.83
2022-12-03T00:59:28.293Z,17.57
2022-12-03T01:01:57.430Z,16.63
2022-12-03T01:04:26.749Z,15.47
2022-12-03T01:06:54.502Z,16.37
2022-12-03T01:09:22.323Z,17.47
2022-12-03T01:11:49.985Z,17.27
2022-12-03T01:14:20.006Z,15.83
2022-12-03T01:16:48.227Z,18.03
2022-12-03T01:19:17.271Z,16.17
2022-12-03T01:21:50.723Z,16.97
2022-12-03T01:24:19.616Z,16.83
2022-12-03T01:26:47.394Z,17.70
2022-12-03T01:29:15.598Z,17.63
2022-12-03T01:32:12.310Z,14.20
2022-12-03T01:34:39.969Z,15.13
2022-12-03T01:37:08.968Z,17.00
2022-12-03T01:39:36.796Z,14.97
2022-12-03T01:42:05.548Z,16.63
2022-12-03T01:44:36.153Z,14.87
2022-12-03T01:47:06.827Z,15.77
2022-12-03T01:49:40.811Z,16.67
2022-12-03T01:52:13.090Z,12.80
2022-12-03T01:54:43.386Z,13.97
2022-12-03T02:00:07.584Z,16.37
2022-12-03T02:02:35.849Z,16.97
2022-12-03T02:05:10.682Z,14.93
2022-12-03T02:07:38.658Z,16.00
2022-12-03T02:10:07.591Z,18.67
2022-12-03T02:12:38.758Z,15.63
2022-12-03T02:15:10.103Z,20.73
2022-12-03T02:17:38.678Z,19.17
2022-12-03T02:20:09.745Z,17.97
2022-12-03T02:22:46.417Z,16.57
2022-12-03T02:25:17.352Z,16.43
2022-12-03T02:27:46.255Z,17.23
2022-12-03T02:30:16.724Z,17.60
2022-12-03T02:32:44.592Z,17.63
2022-12-03T02:35:16.996Z,15.07
2022-12-03T02:37:46.947Z,15.97
2022-12-03T02:40:19.772Z,16.20
2022-12-03T02:42:47.511Z,15.20
2022-12-03T02:45:19.863Z,17.13
2022-12-03T02:47:50.716Z,17.47
2022-12-03T02:50:23.295Z,14.30
2022-12-03T02:52:55.358Z,16.10
2022-12-03T02:55:25.343Z,17.60
2022-12-03T02:57:53.553Z,15.30
2022-12-03T03:00:23.401Z,14.97
2022-12-03T03:02:51.556Z,14.90
2022-12-03T03:05:22.505Z,15.20
2022-12-03T03:07:51.855Z,15.70
2022-12-03T03:10:23.959Z,17.47
2022-12-03T03:12:56.016Z,15.93
2022-12-03T03:15:24.590Z,17.10
2022-12-03T03:17:52.897Z,15.00
2022-12-03T03:20:20.995Z,16.20
2022-12-03T03:22:48.640Z,14.70
2022-12-03T03:25:21.010Z,15.13
2022-12-03T03:27:48.854Z,12.10
2022-12-03T03:30:18.079Z,15.17
2022-12-03T03:32:45.892Z,17.77
2022-12-03T03:35:14.636Z,14.47
2022-12-03T03:37:43.150Z,14.17
2022-12-03T03:40:11.662Z,14.77
2022-12-03T03:42:40.040Z,14.77
2022-12-03T03:45:09.144Z,14.23
2022-12-03T03:47:38.523Z,14.23
2022-12-03T03:50:08.647Z,17.23
2022-12-03T03:52:37.408Z,14.50
2022-12-03T03:55:06.319Z,14.23
2022-12-03T03:57:34.339Z,13.10
2022-12-03T04:00:02.161Z,15.20
2022-12-03T04:02:29.824Z,16.70
2022-12-03T04:04:59.015Z,13.63
2022-12-03T04:07:26.813Z,14.63
2022-12-03T04:09:54.510Z,15.07
2022-12-03T04:12:48.014Z,16.63
2022-12-03T04:15:15.805Z,15.10
2022-12-03T04:17:43.452Z,14.80
2022-12-03T04:20:13.757Z,16.80
2022-12-03T04:22:40.429Z,13.10
2022-12-03T04:25:27.303Z,14.53
2022-12-03T04:28:13.077Z,14.33
2022-12-03T04:30:40.973Z,13.33
2022-12-03T04:33:26.139Z,12.47
2022-12-03T04:35:55.256Z,11.67
2022-12-03T04:38:23.047Z,16.37
2022-12-03T04:41:04.082Z,13.80
2022-12-03T04:43:33.976Z,13.07
2022-12-03T04:46:02.359Z,13.73
2022-12-03T04:48:30.129Z,13.20
2022-12-03T04:50:59.195Z,14.33
2022-12-03T04:53:26.963Z,13.17
2022-12-03T04:55:54.619Z,10.90
2022-12-03T04:58:22.373Z,15.03
2022-12-03T05:00:50.149Z,11.93
2022-12-03T05:03:17.820Z,13.87
2022-12-03T05:05:45.468Z,11.37
2022-12-03T05:08:14.453Z,12.67
2022-12-03T05:10:42.201Z,14.33
2022-12-03T05:13:09.867Z,14.53
2022-12-03T05:15:37.564Z,16.70
2022-12-03T05:18:05.558Z,19.60
2022-12-03T05:20:43.238Z,16.37
2022-12-03T05:23:15.187Z,17.47
2022-12-03T05:25:42.839Z,17.70
2022-12-03T05:28:10.550Z,20.67
2022-12-03T05:30:38.245Z,20.27
2022-12-03T05:33:05.962Z,17.67
2022-12-03T05:35:33.712Z,18.93
2022-12-03T05:38:01.386Z,17.33
2022-12-03T05:40:30.400Z,18.90
2022-12-03T05:42:57.247Z,21.77
2022-12-03T05:45:26.456Z,19.13
2022-12-03T05:47:55.094Z,19.10
2022-12-03T05:50:24.846Z,19.63
2022-12-03T05:52:52.838Z,21.03
2022-12-03T05:55:20.604Z,20.17
2022-12-03T05:57:49.729Z,20.63
2022-12-03T06:00:21.099Z,17.70
2022-12-03T06:02:50.932Z,18.30
2022-12-03T06:05:20.291Z,19.37
2022-12-03T06:07:49.076Z,21.73
2022-12-03T06:10:18.736Z,19.03
2022-12-03T06:12:46.516Z,17.43
2022-12-03T06:15:15.968Z,19.27
2022-12-03T06:17:43.643Z,19.77
2022-12-03T06:20:14.443Z,18.37
2022-12-03T06:22:42.199Z,19.13
2022-12-03T06:25:11.181Z,18.40
2022-12-03T06:27:38.914Z,20.23
2022-12-03T06:30:09.406Z,20.60
2022-12-03T06:32:38.417Z,19.80
2022-12-03T06:35:06.843Z,23.33
2022-12-03T06:37:34.771Z,19.83
2022-12-03T06:40:02.460Z,20.73
2022-12-03T06:42:30.151Z,19.03
2022-12-03T06:44:57.820Z,20.13
2022-12-03T06:47:25.526Z,19.27
2022-12-03T06:49:54.626Z,20.30
2022-12-03T06:52:22.335Z,20.20
2022-12-03T06:54:50.015Z,21.57
2022-12-03T06:57:17.781Z,21.97
2022-12-03T06:59:45.571Z,19.53
2022-12-03T07:02:13.350Z,22.23
2022-12-03T07:04:46.074Z,22.33
2022-12-03T07:07:15.592Z,19.63
2022-12-03T07:09:43.395Z,21.80
2022-12-03T07:12:11.071Z,18.40
2022-12-03T07:14:38.739Z,17.13
2022-12-03T07:17:06.421Z,19.90
2022-12-03T07:19:34.137Z,19.63
2022-12-03T07:22:01.804Z,21.57
2022-12-03T07:24:30.905Z,22.97
2022-12-03T07:26:58.564Z,18.63
2022-12-03T07:29:26.285Z,21.87
2022-12-03T07:31:54.019Z,20.43
2022-12-03T07:34:21.897Z,21.60
2022-12-03T07:36:49.631Z,21.70
2022-12-03T07:39:17.364Z,24.37
2022-12-03T07:41:46.410Z,20.50
2022-12-03T07:44:15.022Z,22.77
2022-12-03T07:46:43.776Z,20.43
2022-12-03T07:49:13.156Z,21.63
2022-12-03T07:51:41.228Z,19.90
2022-12-03T07:54:09.382Z,20.77
2022-12-03T07:56:37.086Z,21.07
2022-12-03T07:59:06.200Z,22.10
2022-12-03T08:01:34.284Z,18.87
2022-12-03T08:04:02.105Z,20.63
2022-12-03T08:06:29.804Z,22.90
2022-12-03T08:08:57.527Z,19.87
2022-12-03T08:11:25.280Z,22.10
2022-12-03T08:13:53.048Z,21.23
2022-12-03T08:16:23.222Z,24.40
2022-12-03T08:18:52.097Z,22.17
2022-12-03T08:21:21.586Z,22.57
2022-12-03T08:23:49.320Z,20.43
2022-12-03T08:26:23.000Z,21.23
2022-12-03T08:28:51.334Z,18.93
2022-12-03T08:31:21.209Z,20.20
2022-12-03T08:33:51.935Z,21.67
2022-12-03T08:36:23.231Z,21.93
2022-12-03T08:38:53.203Z,18.53
2022-12-03T08:41:42.173Z,21.90
2022-12-03T08:44:22.176Z,20.33
2022-12-03T08:46:54.209Z,21.40
2022-12-03T08:49:23.739Z,22.87
2022-12-03T08:51:57.153Z,20.53
2022-12-03T08:54:26.791Z,19.63
2022-12-03T08:56:55.207Z,23.30
2022-12-03T08:59:29.470Z,21.63
2022-12-03T09:01:59.382Z,21.63
2022-12-03T09:04:37.796Z,25.37
2022-12-03T09:07:05.873Z,21.33
2022-12-03T09:09:34.562Z,20.77
2022-12-03T09:12:03.261Z,21.77
2022-12-03T09:14:31.170Z,27.87
2022-12-03T09:16:58.836Z,26.67
2022-12-03T09:19:30.817Z,24.27
2022-12-03T09:21:59.792Z,24.63
2022-12-03T09:24:27.451Z,23.50
2022-12-03T09:26:55.243Z,20.90
2022-12-03T09:29:25.328Z,20.97
2022-12-03T09:31:53.344Z,22.70
2022-12-03T09:34:21.200Z,24.43
2022-12-03T09:36:48.943Z,22.10
2022-12-03T09:39:17.926Z,20.93
2022-12-03T09:41:45.644Z,23.37
2022-12-03T09:44:17.493Z,21.03
2022-12-03T09:46:47.631Z,20.60
2022-12-03T09:49:18.719Z,24.00
2022-12-03T09:51:47.433Z,21.50
2022-12-03T09:54:24.976Z,24.67
2022-12-03T09:56:53.658Z,24.93
2022-12-03T09:59:22.798Z,24.67
2022-12-03T10:01:50.707Z,22.97
2022-12-03T10:04:18.606Z,24.20
2022-12-03T10:06:46.533Z,27.23
2022-12-03T10:09:18.190Z,23.37
2022-12-03T10:11:47.236Z,23.63
2022-12-03T10:14:17.764Z,22.60
2022-12-03T10:16:46.436Z,24.63
2022-12-03T10:19:22.822Z,22.73
2022-12-03T10:21:50.616Z,23.03
2022-12-03T10:24:20.630Z,22.50
2022-12-03T10:26:51.805Z,24.20
2022-12-03T10:29:21.180Z,22.80
2022-12-03T10:31:56.366Z,27.43
2022-12-03T10:34:31.416Z,22.27
2022-12-03T10:37:15.332Z,24.77
2022-12-03T10:39:58.524Z,24.30
2022-12-03T10:42:29.205Z,24.50
2022-12-03T10:45:18.340Z,25.17
2022-12-03T10:48:05.124Z,24.23
2022-12-03T10:50:34.003Z,22.73
2022-12-03T10:53:01.768Z,24.63
2022-12-03T10:55:30.476Z,26.40
2022-12-03T10:57:59.828Z,24.00
2022-12-03T11:00:27.659Z,24.57
2022-12-03T11:02:57.208Z,29.20
2022-12-03T11:05:27.758Z,23.17
2022-12-03T11:07:56.278Z,25.03
2022-12-03T11:10:24.483Z,24.97
2022-12-03T11:13:44.188Z,24.27
2022-12-03T11:16:12.581Z,22.40
2022-12-03T11:19:01.579Z,26.70
2022-12-03T11:21:32.033Z,28.23
2022-12-03T11:24:20.965Z,24.50
2022-12-03T11:27:22.068Z,28.40
2022-12-03T11:29:59.946Z,26.77
2022-12-03T11:33:06.274Z,23.57
2022-12-03T11:36:06.605Z,20.53
2022-12-03T11:38:52.309Z,25.70
2022-12-03T11:41:26.381Z,23.23
2022-12-03T11:44:33.750Z,23.33
2022-12-03T11:47:14.976Z,22.73
2022-12-03T11:49:49.932Z,22.47
2022-12-03T11:52:30.323Z,23.17
2022-12-03T11:55:02.792Z,25.43
2022-12-03T11:57:34.643Z,23.07
2022-12-03T12:00:20.501Z,22.13
2022-12-03T12:02:51.098Z,23.70
2022-12-03T12:05:29.042Z,21.67
2022-12-03T12:07:57.717Z,22.07
2022-12-03T12:10:46.605Z,19.73
2022-12-03T12:13:50.261Z,21.50
2022-12-03T12:16:45.843Z,22.77
2022-12-03T12:19:38.244Z,23.23
2022-12-03T12:22:33.343Z,25.67
2022-12-03T12:25:02.954Z,23.10
2022-12-03T12:27:34.573Z,23.70
2022-12-03T12:30:04.462Z,27.00
2022-12-03T12:32:34.419Z,26.07
2022-12-03T12:35:16.082Z,23.50
2022-12-03T12:37:53.523Z,24.47
2022-12-03T12:40:28.751Z,20.93
2022-12-03T12:42:58.257Z,22.53
2022-12-03T12:45:27.725Z,22.90
2022-12-03T12:48:03.465Z,24.10
2022-12-03T12:50:33.439Z,22.77
2022-12-03T12:53:09.388Z,22.93
2022-12-03T12:55:38.819Z,21.27
2022-12-03T12:58:14.807Z,21.10
2022-12-03T13:00:43.757Z,22.03
2022-12-03T13:03:12.927Z,22.03
2022-12-03T13:05:44.546Z,24.30
2022-12-03T13:08:23.018Z,22.00
2022-12-03T13:10:51.676Z,22.93
2022-12-03T13:13:41.661Z,24.53
2022-12-03T13:16:19.427Z,24.07
2022-12-03T13:18:50.109Z,25.43
2022-12-03T13:21:24.655Z,22.13
2022-12-03T13:23:55.329Z,24.00
2022-12-03T13:26:38.756Z,25.07
2022-12-03T13:29:12.101Z,20.63
2022-12-03T13:31:43.841Z,22.37
2022-12-03T13:34:19.895Z,23.70
2022-12-03T13:36:56.987Z,24.83
2022-12-03T13:39:30.438Z,25.93
2022-12-03T13:42:17.736Z,29.10
2022-12-03T13:44:48.750Z,26.60
2022-12-03T13:47:19.727Z,25.27
2022-12-03T13:49:52.216Z,23.63
2022-12-03T13:52:24.354Z,25.40
2022-12-03T13:54:54.717Z,25.23
2022-12-03T13:57:22.979Z,27.37
2022-12-03T13:59:51.528Z,25.27
2022-12-03T14:02:20.100Z,25.00
2022-12-03T14:04:48.604Z,25.73
2022-12-03T14:07:17.456Z,25.30
2022-12-03T14:09:46.590Z,25.27
2022-12-03T14:12:26.588Z,25.87
2022-12-03T14:14:55.012Z,24.90
2022-12-03T14:17:22.807Z,29.13
2022-12-03T14:19:50.699Z,26.53
2022-12-03T14:22:19.410Z,24.40
2022-12-03T14:24:48.752Z,26.30
2022-12-03T14:27:16.859Z,22.43
2022-12-03T14:29:44.771Z,23.87
2022-12-03T14:32:12.898Z,24.30
2022-12-03T14:34:58.821Z,24.30
2022-12-03T14:37:27.673Z,23.00
2022-12-03T14:39:57.987Z,25.37
2022-12-03T14:42:26.177Z,24.03
2022-12-03T14:44:55.012Z,23.80
2022-12-03T14:47:25.076Z,26.90
2022-12-03T14:49:54.189Z,23.67
2022-12-03T14:52:22.879Z,25.67
2022-12-03T14:54:50.917Z,26.83
2022-12-03T14:57:20.313Z,26.93
2022-12-03T14:59:48.159Z,26.90
2022-12-03T15:02:16.063Z,25.80
2022-12-03T15:04:44.477Z,23.87
2022-12-03T15:07:12.479Z,25.83
2022-12-03T15:09:40.229Z,25.07
2022-12-03T15:12:08.512Z,24.93
2022-12-03T15:14:38.085Z,26.03
2022-12-03T15:17:05.916Z,26.90
2022-12-03T15:19:34.071Z,25.17
2022-12-03T15:22:01.842Z,26.97
2022-12-03T15:24:29.647Z,28.23
2022-12-03T15:26:57.352Z,26.43
2022-12-03T15:29:25.195Z,23.43
2022-12-03T15:31:54.315Z,24.50
2022-12-03T15:34:23.019Z,24.47
2022-12-03T15:36:51.333Z,24.50
2022-12-03T15:39:19.028Z,28.73
2022-12-03T15:41:46.731Z,25.03
2022-12-03T15:44:14.452Z,24.90
2022-12-03T15:46:42.230Z,25.10
2022-12-03T15:49:11.295Z,28.63
2022-12-03T15:51:38.967Z,26.37
2022-12-03T15:54:07.169Z,24.27
2022-12-03T15:56:37.402Z,25.77
2022-12-03T15:59:05.348Z,24.97
2022-12-03T16:01:33.168Z,27.33
2022-12-03T16:04:00.955Z,25.80
2022-12-03T16:06:29.952Z,25.47
2022-12-03T16:08:57.616Z,23.37
2022-12-03T16:11:25.294Z,25.83
2022-12-03T16:13:52.918Z,22.70
2022-12-03T16:16:23.191Z,24.27
2022-12-03T16:18:51.222Z,24.60
2022-12-03T16:21:22.027Z,24.90
2022-12-03T16:23:55.467Z,24.20
2022-12-03T16:26:23.679Z,26.13
2022-12-03T16:28:51.465Z,25.60
2022-12-03T16:31:20.205Z,22.17
2022-12-03T16:33:48.559Z,30.53
2022-12-03T16:36:17.124Z,27.90
2022-12-03T16:38:46.904Z,23.87
2022-12-03T16:41:15.965Z,24.83
2022-12-03T16:43:46.057Z,27.33
2022-12-03T16:46:26.152Z,22.60
2022-12-03T16:48:55.205Z,25.07
2022-12-03T16:51:23.243Z,25.47
2022-12-03T16:53:50.968Z,25.57
2022-12-03T16:56:20.309Z,22.17
2022-12-03T16:58:48.166Z,23.80
2022-12-03T17:01:15.953Z,22.80
2022-12-03T17:03:43.753Z,22.70
2022-12-03T17:06:11.491Z,26.27
2022-12-03T17:08:41.088Z,23.47
2022-12-03T17:11:12.240Z,24.03
2022-12-03T17:13:41.389Z,26.73
2022-12-03T17:16:09.358Z,27.17
2022-12-03T17:18:37.057Z,24.57
2022-12-03T17:21:05.079Z,26.77
2022-12-03T17:23:32.843Z,28.23
2022-12-03T17:26:00.740Z,23.20
2022-12-03T17:28:28.604Z,24.70
2022-12-03T17:30:57.727Z,24.63
2022-12-03T17:33:25.433Z,26.00
2022-12-03T17:35:53.213Z,26.43
2022-12-03T17:38:20.886Z,24.17
2022-12-03T17:40:48.541Z,27.37
2022-12-03T17:43:16.201Z,22.00
2022-12-03T17:45:44.235Z,21.77
2022-12-03T17:48:13.385Z,21.77
2022-12-03T17:50:41.051Z,24.73
2022-12-03T17:53:10.371Z,24.70
2022-12-03T17:55:44.627Z,21.97
2022-12-03T17:58:12.897Z,24.93
2022-12-03T18:00:40.850Z,22.50
2022-12-03T18:03:08.526Z,26.63
2022-12-03T18:05:37.625Z,22.27
2022-12-03T18:08:05.875Z,25.87
2022-12-03T18:10:33.611Z,22.93
2022-12-03T18:13:02.350Z,22.53
2022-12-03T18:15:30.790Z,24.67
2022-12-03T18:17:58.528Z,27.40
2022-12-03T18:20:27.568Z,22.30
2022-12-03T18:22:58.302Z,25.80
2022-12-03T18:25:26.288Z,25.23
2022-12-03T18:27:54.012Z,22.80
2022-12-03T18:30:22.053Z,22.63
2022-12-03T18:32:50.597Z,22.87
2022-12-03T18:35:18.367Z,23.53
2022-12-03T18:37:46.113Z,23.83
2022-12-03T18:40:22.871Z,22.33
2022-12-03T18:42:50.800Z,22.17
2022-12-03T18:45:18.714Z,22.47
2022-12-03T18:47:46.642Z,29.20
2022-12-03T18:50:14.643Z,23.83
2022-12-03T18:52:42.411Z,24.57
2022-12-03T18:55:16.023Z,24.03
2022-12-03T18:57:45.033Z,22.00
2022-12-03T19:00:14.236Z,23.23
2022-12-03T19:05:29.968Z,23.17
2022-12-03T19:07:58.057Z,23.77
2022-12-03T19:10:26.538Z,23.70
2022-12-03T19:12:55.613Z,23.63
2022-12-03T19:15:23.987Z,22.27
2022-12-03T19:17:52.039Z,23.33
2022-12-03T19:20:19.914Z,25.37
2022-12-03T19:22:47.650Z,24.57
2022-12-03T19:25:15.588Z,24.93
2022-12-03T19:27:43.308Z,22.37
2022-12-03T19:30:13.409Z,21.40
2022-12-03T19:32:43.286Z,27.67
2022-12-03T19:35:11.206Z,26.13
2022-12-03T19:37:39.136Z,22.77
2022-12-03T19:40:10.089Z,23.57
2022-12-03T19:42:39.524Z,22.70
2022-12-03T19:45:07.963Z,23.97
2022-12-03T19:47:37.952Z,23.17
2022-12-03T19:50:07.214Z,22.07
2022-12-03T19:52:36.263Z,21.23
2022-12-03T19:55:04.974Z,28.23
2022-12-03T19:57:32.682Z,31.90
2022-12-03T20:00:01.090Z,24.93
2022-12-03T20:02:29.371Z,23.43
2022-12-03T20:04:58.568Z,21.30
2022-12-03T20:07:26.346Z,25.37
2022-12-03T20:09:54.497Z,23.77
2022-12-03T20:12:22.424Z,22.07
2022-12-03T20:14:51.553Z,23.97
2022-12-03T20:17:19.338Z,23.93
2022-12-03T20:19:47.187Z,23.20
2022-12-03T20:22:16.395Z,23.20
2022-12-03T20:24:44.052Z,21.37
2022-12-03T20:27:11.711Z,21.97
2022-12-03T20:29:39.466Z,23.77
2022-12-03T20:32:07.982Z,23.33
2022-12-03T20:34:36.375Z,24.00
2022-12-03T20:37:04.397Z,23.70
2022-12-03T20:39:33.716Z,23.53
2022-12-03T20:42:01.600Z,23.87
2022-12-03T20:44:29.351Z,23.73
2022-12-03T20:46:57.044Z,25.03
2022-12-03T20:49:24.747Z,22.60
2022-12-03T20:51:52.393Z,23.77
2022-12-03T20:54:20.058Z,23.50
2022-12-03T20:56:49.091Z,23.57
2022-12-03T20:59:18.507Z,22.60
2022-12-03T21:01:46.337Z,27.33
2022-12-03T21:04:15.937Z,23.00
2022-12-03T21:06:43.680Z,24.43
2022-12-03T21:09:13.110Z,24.43
2022-12-03T21:11:42.344Z,23.20
2022-12-03T21:14:12.352Z,26.17
2022-12-03T21:19:30.284Z,24.97
2022-12-03T21:21:57.995Z,21.13
2022-12-03T21:24:25.819Z,26.57
2022-12-03T21:26:53.472Z,26.97
2022-12-03T21:29:22.668Z,24.60
2022-12-03T21:31:50.558Z,23.53
2022-12-03T21:34:18.265Z,24.40
2022-12-03T21:36:45.989Z,24.77
2022-12-03T21:39:13.720Z,22.70
2022-12-03T21:41:41.341Z,22.57
2022-12-03T21:44:30.504Z,24.00
2022-12-03T21:47:09.407Z,26.92
2022-12-03T21:49:40.713Z,26.23
2022-12-03T21:52:08.360Z,25.20
2022-12-03T21:54:35.991Z,24.53
2022-12-03T21:57:03.632Z,21.23
2022-12-03T21:59:32.999Z,25.13
2022-12-03T22:02:00.781Z,23.60
2022-12-03T22:04:28.475Z,25.13
2022-12-03T22:06:56.254Z,23.40
2022-12-03T22:09:26.711Z,23.30
2022-12-03T22:11:56.718Z,24.47
2022-12-03T22:14:24.363Z,24.70
2022-12-03T22:16:53.314Z,25.63
2022-12-03T22:19:22.997Z,28.10
2022-12-03T22:21:50.699Z,23.63
2022-12-03T22:24:19.449Z,26.23
2022-12-03T22:26:47.902Z,25.23
2022-12-03T22:29:16.134Z,22.57
2022-12-03T22:31:45.842Z,27.50
2022-12-03T22:34:14.823Z,25.27
2022-12-03T22:36:42.431Z,25.63
2022-12-03T22:39:10.105Z,24.63
2022-12-03T22:41:37.700Z,23.13
2022-12-03T22:44:05.548Z,24.40
2022-12-03T22:46:33.268Z,22.60
2022-12-03T22:49:06.663Z,24.90
2022-12-03T22:51:36.883Z,22.20
2022-12-03T22:54:05.423Z,27.53
2022-12-03T22:56:33.636Z,26.27
2022-12-03T22:59:01.357Z,25.43
2022-12-03T23:01:30.650Z,22.40
2022-12-03T23:03:58.787Z,26.93
2022-12-03T23:06:27.349Z,24.43
2022-12-03T23:08:56.671Z,24.73
2022-12-03T23:11:24.826Z,21.77
2022-12-03T23:13:53.116Z,22.37
2022-12-03T23:16:22.937Z,26.03
2022-12-03T23:18:50.876Z,25.00
2022-12-03T23:21:25.404Z,23.90
2022-12-03T23:23:58.059Z,22.20
2022-12-03T23:26:26.255Z,22.23
2022-12-03T23:28:53.999Z,21.47
2022-12-03T23:31:23.963Z,24.03
2022-12-03T23:33:52.504Z,22.53
2022-12-03T23:36:21.777Z,25.70
2022-12-03T23:38:49.875Z,22.43
2022-12-03T23:41:20.760Z,22.77
2022-12-03T23:43:48.710Z,27.13
2022-12-03T23:46:18.185Z,23.13
2022-12-03T23:48:46.570Z,22.27
2022-12-03T23:51:15.736Z,24.47
2022-12-03T23:53:43.436Z,23.77
2022-12-03T23:56:13.926Z,24.10
2022-12-03T23:58:43.351Z,23.10
